x

Cape Elizabeth- 45nm Nw Of Aberdeen, Wa (46041) Wave Buoy

2:50 - Mon 26th Sep 2016 All times are PDT. -7 hours from GMT.

  • Sig Wave height 5.2ft
  • Swell Direction
  • Peak Period 9s
  • Average Period 8s
  • Wind
    7mph, 9mph gusts
  • Sea Temp 57°f
  • Ar Temp 57°f
  • Sea Pressure 1020.9mb
  • Cape Elizabeth- 45nm Nw Of Aberdeen, Wa
  • Cape Elizabeth- 45nm Nw Of Aberdeen, Wa

More Historic Weather Station data

Upgrade to MSW Pro to gain access to the past 30 days of data for over 8000 Wavebouys and Weather Stations around the globe.

Join Pro

Comparision Forecast

View Surf forecast
   
Seg 09/26 2:50 5ft 9s 8s 7 9 mph 1020.9mb 57f 57f
1:50 6ft 10s 8s 4 7 mph 1021.6mb 57f 57f
12:50 5.5ft 10s 8s 7
mph
1022.1mb 57f 57f
Dom 09/25 11:50 5.5ft 10s 8s 7 9 mph 1022.7mb 57f 58f
10:50 5.5ft 10s 8s 7 9 mph 1023.1mb 57f 58f
9:50 5.5ft 11s 9s 11
mph
1023.5mb 57f 58f
8:50 6ft 11s 9s 11
mph
1024.1mb 57f 58f
7:50 5ft 11s 9s 9 11 mph 1024.1mb 57f 58f
6:50 5ft 11s 9s 9 11 mph 1024.6mb 58f 59f
5:50 6.5ft 11s 9s 7 9 mph 1025.3mb 58f 60f
4:50 5.5ft 10s 8s 4 7 mph 1026.2mb 59f 61f
3:50 6.5ft 10s 8s 4 7 mph 1026.9mb 60f 62f
2:50 7ft 10s 8s  -  2 mph 1027.6mb 59f 62f
1:50 6ft 10s 8s  -  2 mph 1028.2mb 58f 60f
12:50 7ft 10s 8s 2 4 mph 1028.5mb 57f 58f
11:50 7ft 10s 8s 4 7 mph 1028.7mb 56f 58f
10:50 7ft 10s 8s 4 7 mph 1028.6mb 56f 58f
9:50 6ft 10s 7s 4 7 mph 1028.6mb 57f 58f
8:50 6.5ft 10s 7s 9 11 mph 1028.3mb 57f 58f
7:50 5.5ft 10s 7s 9 11 mph 1028mb 57f 58f
6:50 6ft 9s 8s 11 13 mph 1027.7mb 58f 58f
5:50 5.5ft 11s 8s 9 11 mph 1027.8mb 57f 59f
4:50 5ft 9s 8s 9 11 mph 1027.7mb 57f 59f
3:50 5ft 9s 9s 9 11 mph 1027.5mb 57f 59f
2:50 4.5ft 10s 8s 7 9 mph 1027.9mb 56f 58f
1:50 5ft 11s 8s 9 11 mph 1028.1mb 56f 58f
12:50 5ft 11s 8s 4 7 mph 1028.2mb 56f 57f
Sáb 09/24 11:50 5ft 10s 8s 4 7 mph 1028.3mb 56f 57f
10:50 6ft 9s 8s 4
mph
1027.8mb 56f 57f
9:50 6ft 11s 8s 4 7 mph 1027.5mb 57f 57f
8:50 6ft 10s 8s 2 4 mph 1027.3mb 56f 57f
7:50 6.5ft 10s 8s 2 4 mph 1026.6mb 57f 57f
6:50 7ft 10s 8s 7
mph
1026.4mb 57f 57f
5:50 7ft 10s 8s 7 9 mph 1026.5mb 57f 57f
4:50 6.5ft 11s 8s 9 11 mph 1026.8mb 57f 57f
3:50 7ft 11s 8s 7 9 mph 1027.1mb 57f 57f
2:50 6ft 11s 8s 9 11 mph 1027.2mb 57f 57f
1:50 7.5ft 11s 8s 11 13 mph 1027.8mb 57f 57f
12:50 6.5ft 11s 8s 9 11 mph 1028.5mb 57f 56f
11:50 8ft 12s 9s 11
mph
1028.5mb 57f 56f
10:50 7ft 12s 8s 7 9 mph 1028.6mb 57f 56f
9:50 7.5ft 12s 8s 9 11 mph 1027.9mb 56f 56f
8:50 8ft 12s 8s 2 4 mph 1027.8mb 56f 56f
7:50 8ft 12s 8s 2 4 mph 1026.8mb 56f 56f
6:50 8.5ft 12s 8s  -  2 mph 1026.6mb 56f 56f
5:50 10ft 11s 8s 4 7 mph 1026.1mb 56f 56f
4:50 9ft 11s 8s 4 7 mph 1025.6mb 56f 57f
3:50 10.5ft 11s 8s 2 4 mph 1025.4mb 56f 56f
2:50 11.5ft 11s 8s 4 9 mph 1025.1mb 56f 57f
1:50 12ft 11s 8s 9 11 mph 1025.2mb 56f 57f
12:50 11ft 9s 8s 7 9 mph 1024.9mb 57f 57f
Sex 09/23 11:50 11.5ft 11s 8s 7 9 mph 1023.9mb 57f 57f
10:50 11ft 11s 8s 7 9 mph 1023.5mb 57f 57f
9:50 10.5ft 11s 8s 9 13 mph 1022.8mb 57f 57f
8:50 11.5ft 11s 8s 11 13 mph 1022.1mb 57f 57f
7:50 11.5ft 12s 8s 11 16 mph 1020.7mb 56f 57f
6:50 13ft 13s 8s 16 22 mph 1019.7mb 56f 58f
5:50 12ft 11s 8s 18 20 mph 1018.5mb 56f 58f
4:50 13ft 12s 8s 16 20 mph 1017.8mb 57f 57f
3:50 11.5ft 12s 8s 27 31 mph 1016.9mb 57f 59f
2:50 11ft 11s 8s 18 22 mph 1016.2mb 57f 60f
1:50 12ft 8s 8s 16 20 mph 1015.5mb 57f 60f
12:50 12.5ft 8s 8s 16 18 mph 1015mb 56f 60f
11:50 13.5ft 8s 8s 13 16 mph 1014.1mb 57f 59f
10:50 13.5ft 8s 7s 18 22 mph 1012.6mb 57f 58f
9:50 13ft 8s 7s 27 43 mph 1011.3mb 57f 55f
8:50 11.5ft 7s 6s 29 36 mph 1011mb 57f 56f
6:50 8ft 6s 5s 31 38 mph 1011.5mb 58f 57f
5:50 6ft 5s 5s 31 38 mph 1012.2mb 58f 58f
4:50 5.5ft 5s 5s 27 34 mph 1013.2mb 58f 58f
3:50 4.5ft 4s 4s 25 29 mph 1014.3mb 58f 58f
2:50 3.5ft 4s 4s 20 25 mph 1015.3mb 58f 59f
1:50 3ft 4s 4s 18 20 mph 1016mb 58f 59f
12:50 3ft 7s 5s 16 18 mph 1016.5mb 58f 59f
Qui 09/22 11:50 3ft 8s 5s 16 18 mph 1016.2mb 58f 59f
10:50 3ft 7s 5s 16 18 mph 1016.9mb 58f 59f
9:50 3ft 6s 5s 16 20 mph 1017.2mb 59f 59f
8:50 3.5ft 7s 6s 11 13 mph 1018.1mb 59f 58f
7:50 3.5ft 7s 6s 9 11 mph 1018mb 59f 58f
6:50 4ft 8s 6s 9
mph
1018.3mb 59f 58f
5:50 4ft 7s 6s 7
mph
1018.7mb 59f 58f
4:50 4.5ft 8s 6s 4 7 mph 1018.6mb 59f 57f
3:50 4.5ft 7s 6s 2 4 mph 1018.6mb 59f 57f
2:50 5ft 7s 6s 2 4 mph 1018.8mb 59f 57f
1:50 4.5ft 8s 6s 7 9 mph 1018.6mb 59f 57f
12:50 4.5ft 7s 6s 7 9 mph 1018.4mb 58f 57f
11:50 4.5ft 9s 6s 9 11 mph 1018.3mb 58f 56f
10:50 4.5ft 9s 6s 7 9 mph 1017.9mb 58f 56f